Weather at Limassol General Hospital Helipad

Public forecast

Using degrees Celsius for public forecast. Weather courtesy of forecast.io.

Closest aviation weather report (METAR) to Limassol General Hospital Helipad

Closest report is RAF Akrotiri, 7.1 nm (13.1 km) S.

2024/06/22 06:50 (retrieved 26 minutes ago)

LCRA 220650Z 20007KT 9999 FEW019 27/22 Q1003 NOSIG

Closest aviation forecast (TAF) to Limassol General Hospital Helipad

Closest forecast is RAF Akrotiri, 7.1 nm (13.1 km) S.

2024/06/22 06:33 (retrieved 43 minutes ago)

TAF LCRA 220429Z 2206/2224 25005KT 9999 SCT018 BECMG 2206/2209 FEW020 PROB30 TEMPO 2220/2224 SCT012